Time;durP1;ratioP1;P1;durP2;ratioP2;P2;SDS_P1;SDS_P2;PMS_P1;PMS_P2;Temp;Humidity;BMP_temperature;BMP_pressure;BME280_temperature;BME280_humidity;BME280_pressure;Samples;Min_cycle;Max_cycle;Signal;HPM_P1;HPM_P2
2022/07/18 00:00:30;;;;;;;;;;;;;;;;;;5037186;28;19959;-29
2022/07/18 00:02:56;;;;;;;;;;;;;;;;;;5037033;28;19913;-29
2022/07/18 00:05:22;;;;;;;;;;;;;;;;;;5036879;28;19925;-29
2022/07/18 00:07:48;;;;;;;;;;;;;;;;;;5037196;28;19917;-29
2022/07/18 00:10:14;;;;;;;;;;;;;;;;;;5036963;28;19909;-29
2022/07/18 00:12:40;;;;;;;;;;;;;;;;;;5036833;28;20067;-29
2022/07/18 00:15:06;;;;;;;;;;;;;;;;;;5036871;28;20356;-29
2022/07/18 00:17:32;;;;;;;;;;;;;;;;;;5036778;28;19913;-29
2022/07/18 00:19:58;;;;;;;;;;;;;;;;;;5036803;28;20344;-28
2022/07/18 00:22:24;;;;;;;;;;;;;;;;;;5036609;28;19920;-30
2022/07/18 00:24:50;;;;;;;;;;;;;;;;;;5035732;28;19913;-29
2022/07/18 00:27:16;;;;;;;;;;;;;;;;;;5036340;28;20229;-29
2022/07/18 00:29:42;;;;;;;;;;;;;;;;;;5036594;28;19909;-29
2022/07/18 00:32:07;;;;;;;;;;;;;;;;;;5035491;28;19996;-30
2022/07/18 00:34:33;;;;;;;;;;;;;;;;;;5036511;28;19920;-29
2022/07/18 00:36:59;;;;;;;;;;;;;;;;;;5036413;28;19921;-30
2022/07/18 00:39:25;;;;;;;;;;;;;;;;;;5035478;28;19909;-29
2022/07/18 00:41:51;;;;;;;;;;;;;;;;;;5036521;28;19924;-29
2022/07/18 00:44:17;;;;;;;;;;;;;;;;;;5036318;28;19909;-29
2022/07/18 00:46:43;;;;;;;;;;;;;;;;;;5036148;28;19936;-29
2022/07/18 00:49:09;;;;;;;;;;;;;;;;;;5036182;28;20332;-30
2022/07/18 00:51:37;;;;;;;;;;;;;;;;;;5036151;28;19917;-30
2022/07/18 00:54:04;;;;;;;;;;;;;;;;;;5036084;28;19999;-29
2022/07/18 00:56:30;;;;;;;;;;;;;;;;;;5036349;28;20292;-29
2022/07/18 00:58:56;;;;;;;;;;;;;;;;;;5036000;28;19967;-29
2022/07/18 01:04:06;;;;;;;;;;;;;;;;;;5035918;28;20004;-30
2022/07/18 01:06:32;;;;;;;;;;;;;;;;;;5035593;28;19960;-29
2022/07/18 01:08:58;;;;;;;;;;;;;;;;;;5035862;28;19909;-29
2022/07/18 01:11:24;;;;;;;;;;;;;;;;;;5036085;28;19923;-32
2022/07/18 01:13:50;;;;;;;;;;;;;;;;;;5035690;28;19944;-29
2022/07/18 01:16:16;;;;;;;;;;;;;;;;;;5035759;28;20359;-30
2022/07/18 01:18:42;;;;;;;;;;;;;;;;;;5036003;28;19928;-30
2022/07/18 01:21:08;;;;;;;;;;;;;;;;;;5035622;28;20343;-29
2022/07/18 01:23:34;;;;;;;;;;;;;;;;;;5035543;28;19952;-30
2022/07/18 01:26:00;;;;;;;;;;;;;;;;;;5035847;28;19982;-30
2022/07/18 01:28:26;;;;;;;;;;;;;;;;;;5035475;28;19913;-30
2022/07/18 01:30:52;;;;;;;;;;;;;;;;;;5035448;28;20384;-30
2022/07/18 01:33:18;;;;;;;;;;;;;;;;;;5035499;28;19909;-29
2022/07/18 01:35:44;;;;;;;;;;;;;;;;;;5034461;28;19913;-30
2022/07/18 01:38:10;;;;;;;;;;;;;;;;;;5035547;28;20008;-29
2022/07/18 01:40:36;;;;;;;;;;;;;;;;;;5034960;28;20229;-30
2022/07/18 01:43:02;;;;;;;;;;;;;;;;;;5034346;28;20100;-29
2022/07/18 01:45:28;;;;;;;;;;;;;;;;;;5034449;28;19924;-30
2022/07/18 01:47:54;;;;;;;;;;;;;;;;;;5035158;28;20248;-30
2022/07/18 01:50:20;;;;;;;;;;;;;;;;;;5035264;28;19909;-30
2022/07/18 01:52:46;;;;;;;;;;;;;;;;;;5035127;28;19921;-29
2022/07/18 01:55:12;;;;;;;;;;;;;;;;;;5035500;28;20067;-28
2022/07/18 01:57:38;;;;;;;;;;;;;;;;;;5035186;28;19964;-28
2022/07/18 02:00:04;;;;;;;;;;;;;;;;;;5035156;28;19917;-29
2022/07/18 02:02:30;;;;;;;;;;;;;;;;;;5035241;28;20364;-29
2022/07/18 02:04:59;;;;;;;;;;;;;;;;;;5035165;28;19956;-30
2022/07/18 02:07:25;;;;;;;;;;;;;;;;;;5035010;28;19978;-29
2022/07/18 02:09:51;;;;;;;;;;;;;;;;;;5035069;28;19996;-30
2022/07/18 02:12:17;;;;;;;;;;;;;;;;;;5034958;28;20011;-29
2022/07/18 02:14:43;;;;;;;;;;;;;;;;;;5034994;28;19996;-29
2022/07/18 02:17:09;;;;;;;;;;;;;;;;;;5034958;28;20007;-29
2022/07/18 02:19:35;;;;;;;;;;;;;;;;;;5034962;28;20370;-29
2022/07/18 02:22:01;;;;;;;;;;;;;;;;;;5034811;28;19913;-30
2022/07/18 02:24:27;;;;;;;;;;;;;;;;;;5034899;28;19916;-30
2022/07/18 02:26:53;;;;;;;;;;;;;;;;;;5035051;28;19918;-29
2022/07/18 02:29:19;;;;;;;;;;;;;;;;;;5035158;28;20233;-29
2022/07/18 02:31:45;;;;;;;;;;;;;;;;;;5034807;28;19913;-29
2022/07/18 02:34:11;;;;;;;;;;;;;;;;;;5034780;28;20367;-29
2022/07/18 02:36:37;;;;;;;;;;;;;;;;;;5034779;28;20261;-29
2022/07/18 02:39:03;;;;;;;;;;;;;;;;;;5034769;28;19913;-29
2022/07/18 02:41:29;;;;;;;;;;;;;;;;;;5034988;28;19916;-30
2022/07/18 02:43:55;;;;;;;;;;;;;;;;;;5034591;28;19913;-29
2022/07/18 02:46:21;;;;;;;;;;;;;;;;;;5035014;28;19917;-29
2022/07/18 02:48:47;;;;;;;;;;;;;;;;;;5034908;28;19949;-30
2022/07/18 02:51:13;;;;;;;;;;;;;;;;;;5037168;28;20360;-29
2022/07/18 02:53:39;;;;;;;;;;;;;;;;;;5038309;28;19913;-29
2022/07/18 02:56:05;;;;;;;;;;;;;;;;;;5038326;28;20033;-29
2022/07/18 02:58:32;;;;;;;;;;;;;;;;;;5038541;28;19917;-29
2022/07/18 03:00:58;;;;;;;;;;;;;;;;;;5038272;28;19912;-29
2022/07/18 03:03:24;;;;;;;;;;;;;;;;;;5038192;28;19916;-30
2022/07/18 03:05:50;;;;;;;;;;;;;;;;;;5038182;28;20260;-29
2022/07/18 03:08:16;;;;;;;;;;;;;;;;;;5038040;28;19917;-29
2022/07/18 03:10:42;;;;;;;;;;;;;;;;;;5038123;28;19917;-30
2022/07/18 03:13:08;;;;;;;;;;;;;;;;;;5038242;28;20008;-30
2022/07/18 03:15:34;;;;;;;;;;;;;;;;;;5038544;28;19996;-29
2022/07/18 03:18:00;;;;;;;;;;;;;;;;;;5038309;28;19979;-30
2022/07/18 03:20:26;;;;;;;;;;;;;;;;;;5037942;28;20348;-30
2022/07/18 03:22:52;;;;;;;;;;;;;;;;;;5037801;28;19913;-30
2022/07/18 03:25:18;;;;;;;;;;;;;;;;;;5038164;28;19913;-30
2022/07/18 03:27:44;;;;;;;;;;;;;;;;;;5037686;28;19917;-29
2022/07/18 03:30:10;;;;;;;;;;;;;;;;;;5037752;28;20008;-29
2022/07/18 03:32:36;;;;;;;;;;;;;;;;;;5037800;28;19919;-29
2022/07/18 03:35:02;;;;;;;;;;;;;;;;;;5037664;28;19920;-29
2022/07/18 03:37:28;;;;;;;;;;;;;;;;;;5037573;28;20268;-30
2022/07/18 03:39:54;;;;;;;;;;;;;;;;;;5037866;28;19917;-29
2022/07/18 03:42:20;;;;;;;;;;;;;;;;;;5036416;28;20352;-30
2022/07/18 03:44:46;;;;;;;;;;;;;;;;;;5037672;28;19918;-29
2022/07/18 03:47:12;;;;;;;;;;;;;;;;;;5037122;28;19917;-30
2022/07/18 03:49:38;;;;;;;;;;;;;;;;;;5036344;28;19920;-30
2022/07/18 03:52:04;;;;;;;;;;;;;;;;;;5037203;28;19917;-29
2022/07/18 03:54:30;;;;;;;;;;;;;;;;;;5037271;28;20004;-30
2022/07/18 03:56:56;;;;;;;;;;;;;;;;;;5037080;28;19949;-29
2022/07/18 03:59:22;;;;;;;;;;;;;;;;;;5037458;28;19963;-29
2022/07/18 04:01:48;;;;;;;;;;;;;;;;;;5036371;28;19925;-30
2022/07/18 04:04:14;;;;;;;;;;;;;;;;;;5035919;28;19909;-30
2022/07/18 04:06:40;;;;;;;;;;;;;;;;;;5036661;28;19921;-30
2022/07/18 04:09:06;;;;;;;;;;;;;;;;;;5037123;28;20332;-30
2022/07/18 04:11:32;;;;;;;;;;;;;;;;;;5036811;28;19913;-29
2022/07/18 04:13:58;;;;;;;;;;;;;;;;;;5036929;28;20268;-29
2022/07/18 04:16:24;;;;;;;;;;;;;;;;;;5036757;28;19921;-30
2022/07/18 04:18:50;;;;;;;;;;;;;;;;;;5036588;28;20079;-30
2022/07/18 04:21:16;;;;;;;;;;;;;;;;;;5036596;28;19967;-29
2022/07/18 04:23:42;;;;;;;;;;;;;;;;;;5036459;28;19917;-29
2022/07/18 04:26:08;;;;;;;;;;;;;;;;;;5036739;28;19916;-29
2022/07/18 04:28:34;;;;;;;;;;;;;;;;;;5036394;28;19917;-30
2022/07/18 04:31:00;;;;;;;;;;;;;;;;;;5036364;28;20242;-30
2022/07/18 04:33:26;;;;;;;;;;;;;;;;;;5035295;28;19915;-30
2022/07/18 04:35:53;;;;;;;;;;;;;;;;;;5036260;28;19955;-30
2022/07/18 04:38:18;;;;;;;;;;;;;;;;;;5036433;28;19913;-30
2022/07/18 04:40:44;;;;;;;;;;;;;;;;;;5036381;28;20260;-29
2022/07/18 04:43:10;;;;;;;;;;;;;;;;;;5036010;28;19909;-30
2022/07/18 04:45:37;;;;;;;;;;;;;;;;;;5035104;28;19924;-30
2022/07/18 04:48:03;;;;;;;;;;;;;;;;;;5035982;28;19925;-30
2022/07/18 04:50:29;;;;;;;;;;;;;;;;;;5035860;28;19921;-30
2022/07/18 04:52:55;;;;;;;;;;;;;;;;;;5035935;28;20393;-30
2022/07/18 04:55:21;;;;;;;;;;;;;;;;;;5035027;28;19909;-30
2022/07/18 04:57:47;;;;;;;;;;;;;;;;;;5035864;28;20352;-30
2022/07/18 05:00:13;;;;;;;;;;;;;;;;;;5036393;28;19996;-30
2022/07/18 05:02:40;;;;;;;;;;;;;;;;;;5035588;28;19952;-30
2022/07/18 05:05:06;;;;;;;;;;;;;;;;;;5035373;28;19913;-30
2022/07/18 05:07:32;;;;;;;;;;;;;;;;;;5035712;28;19913;-29
2022/07/18 05:09:58;;;;;;;;;;;;;;;;;;5035545;28;20349;-29
2022/07/18 05:12:24;;;;;;;;;;;;;;;;;;5035389;28;19975;-30
2022/07/18 05:14:50;;;;;;;;;;;;;;;;;;5034589;28;19921;-29
2022/07/18 05:17:16;;;;;;;;;;;;;;;;;;5035480;28;20297;-29
2022/07/18 05:19:42;;;;;;;;;;;;;;;;;;5035312;28;20352;-30
2022/07/18 05:22:08;;;;;;;;;;;;;;;;;;5034299;28;19917;-30
2022/07/18 05:24:34;;;;;;;;;;;;;;;;;;5035716;28;19916;-30
2022/07/18 05:27:00;;;;;;;;;;;;;;;;;;5035341;28;19913;-30
2022/07/18 05:29:26;;;;;;;;;;;;;;;;;;5034467;28;19920;-30
2022/07/18 05:31:52;;;;;;;;;;;;;;;;;;5035510;28;19913;-29
2022/07/18 05:34:18;;;;;;;;;;;;;;;;;;5035272;28;20019;-30
2022/07/18 05:36:44;;;;;;;;;;;;;;;;;;5034250;28;19921;-30
2022/07/18 05:39:10;;;;;;;;;;;;;;;;;;5035234;28;19976;-30
2022/07/18 05:41:36;;;;;;;;;;;;;;;;;;5035058;28;20260;-30
2022/07/18 05:44:03;;;;;;;;;;;;;;;;;;5035003;28;20339;-30
2022/07/18 05:46:29;;;;;;;;;;;;;;;;;;5035133;28;19913;-30
2022/07/18 05:51:46;;;;;;;;;;;;;;;;;;5035325;28;19920;-30
2022/07/18 05:54:15;;;;;;;;;;;;;;;;;;5035174;28;20248;-30
2022/07/18 05:56:41;;;;;;;;;;;;;;;;;;5034885;28;20267;-30
2022/07/18 05:59:08;;;;;;;;;;;;;;;;;;5034922;28;19909;-30
2022/07/18 06:04:10;;;;;;;;;;;;;;;;;;4534331;26;19926;-32
2022/07/18 06:06:41;;;;;;;;;;;;;;;;;;5035186;28;19913;-33
2022/07/18 06:11:59;;;;;;;;;;;;;;;;;;5034901;28;20370;-34
2022/07/18 06:14:25;;;;;;;;;;;;;;;;;;5035162;28;20359;-32
2022/07/18 06:16:51;;;;;;;;;;;;;;;;;;5035124;28;19917;-32
2022/07/18 06:19:17;;;;;;;;;;;;;;;;;;5034902;28;19909;-33
2022/07/18 06:21:43;;;;;;;;;;;;;;;;;;5033888;28;19923;-32
2022/07/18 06:24:09;;;;;;;;;;;;;;;;;;5035082;28;20239;-34
2022/07/18 06:26:35;;;;;;;;;;;;;;;;;;5038427;28;19909;-34
2022/07/18 06:29:01;;;;;;;;;;;;;;;;;;5037760;28;19921;-33
2022/07/18 06:31:27;;;;;;;;;;;;;;;;;;5038702;28;19913;-32
2022/07/18 06:33:53;;;;;;;;;;;;;;;;;;5038614;28;20024;-33
2022/07/18 06:36:23;;;;;;;;;;;;;;;;;;5038530;28;19913;-32
2022/07/18 06:38:49;;;;;;;;;;;;;;;;;;5038364;28;19909;-32
2022/07/18 06:41:15;;;;;;;;;;;;;;;;;;5038645;28;20012;-31
2022/07/18 06:46:32;;;;;;;;;;;;;;;;;;5038392;28;19921;-31
2022/07/18 06:49:00;;;;;;;;;;;;;;;;;;5037182;28;19917;-32
2022/07/18 06:51:53;;;;;;;;;;;;;;;;;;5038108;28;19978;-34
2022/07/18 06:54:26;;;;;;;;;;;;;;;;;;5038212;28;19909;-31
2022/07/18 06:56:53;;;;;;;;;;;;;;;;;;5038172;28;19913;-32
2022/07/18 06:59:21;;;;;;;;;;;;;;;;;;5037267;28;19948;-33
2022/07/18 07:01:48;;;;;;;;;;;;;;;;;;5037150;28;19913;-32
2022/07/18 07:04:14;;;;;;;;;;;;;;;;;;5036816;28;19921;-32
2022/07/18 07:06:40;;;;;;;;;;;;;;;;;;5038005;28;19971;-33
2022/07/18 07:09:06;;;;;;;;;;;;;;;;;;5037901;28;19913;-33
2022/07/18 07:11:32;;;;;;;;;;;;;;;;;;5037856;28;19913;-35
2022/07/18 07:13:58;;;;;;;;;;;;;;;;;;5038107;28;20000;-32
2022/07/18 07:16:24;;;;;;;;;;;;;;;;;;5038088;28;19975;-34
2022/07/18 07:18:50;;;;;;;;;;;;;;;;;;5037779;28;19917;-32
2022/07/18 07:21:16;;;;;;;;;;;;;;;;;;5037964;28;19924;-34
2022/07/18 07:23:43;;;;;;;;;;;;;;;;;;5037640;28;19910;-32
2022/07/18 07:26:11;;;;;;;;;;;;;;;;;;5037927;28;20396;-32
2022/07/18 07:28:38;;;;;;;;;;;;;;;;;;5037366;28;19924;-32
2022/07/18 07:33:54;;;;;;;;;;;;;;;;;;5037156;28;19955;-31
2022/07/18 07:36:25;;;;;;;;;;;;;;;;;;5037257;28;19917;-32
2022/07/18 07:41:42;;;;;;;;;;;;;;;;;;5037729;28;20389;-32
2022/07/18 07:44:08;;;;;;;;;;;;;;;;;;5037305;28;19951;-33
2022/07/18 07:46:34;;;;;;;;;;;;;;;;;;5037502;28;19935;-33
2022/07/18 07:49:01;;;;;;;;;;;;;;;;;;5037420;28;20352;-32
2022/07/18 07:51:27;;;;;;;;;;;;;;;;;;5037204;28;19996;-32
2022/07/18 07:53:53;;;;;;;;;;;;;;;;;;5037038;28;19913;-31
2022/07/18 07:56:19;;;;;;;;;;;;;;;;;;5036177;28;19925;-32
2022/07/18 07:58:45;;;;;;;;;;;;;;;;;;5037038;28;20358;-32
2022/07/18 08:01:12;;;;;;;;;;;;;;;;;;5036084;28;19913;-32
2022/07/18 08:23:10;;;;;;;;;;;;;;;;;;5017053;28;19952;-27
2022/07/18 08:34:14;;;;;;;;;;;;;;;;;;5017303;28;19925;-28
2022/07/18 08:36:43;;;;;;;;;;;;;;;;;;5032063;28;20004;-28
2022/07/18 08:39:17;;;;;;;;;;;;;;;;;;5032048;28;19914;-28
2022/07/18 08:44:27;;;;;;;;;;;;;;;;;;4759975;26;19925;-27
2022/07/18 08:46:53;;;;;;;;;;;;;;;;;;5036158;28;19924;-27
2022/07/18 08:49:20;;;;;;;;;;;;;;;;;;5036070;28;19909;-27
2022/07/18 08:51:46;;;;;;;;;;;;;;;;;;5035033;28;19924;-27
2022/07/18 08:54:12;;;;;;;;;;;;;;;;;;5036581;28;19910;-27
2022/07/18 08:56:39;;;;;;;;;;;;;;;;;;5036037;28;20314;-27
2022/07/18 09:01:56;;;;;;;;;;;;;;;;;;5035947;28;20294;-27
2022/07/18 09:04:24;;;;;;;;;;;;;;;;;;5036285;28;19940;-27
2022/07/18 09:06:52;;;;;;;;;;;;;;;;;;5035739;28;19928;-27
2022/07/18 09:09:19;;;;;;;;;;;;;;;;;;5035873;28;19909;-27
2022/07/18 09:11:46;;;;;;;;;;;;;;;;;;5036305;28;19919;-27
2022/07/18 09:14:14;;;;;;;;;;;;;;;;;;5034930;28;19920;-27
2022/07/18 09:16:41;;;;;;;;;;;;;;;;;;5035613;28;19923;-27
2022/07/18 09:19:09;;;;;;;;;;;;;;;;;;5036207;28;19909;-27
2022/07/18 09:21:40;;;;;;;;;;;;;;;;;;5035554;28;20396;-27
2022/07/18 09:24:08;;;;;;;;;;;;;;;;;;5035312;28;19909;-27
2022/07/18 09:26:39;;;;;;;;;;;;;;;;;;5034405;28;19924;-27
2022/07/18 09:29:06;;;;;;;;;;;;;;;;;;5035568;28;20411;-27
2022/07/18 09:31:35;;;;;;;;;;;;;;;;;;5035270;28;19913;-27
2022/07/18 09:34:03;;;;;;;;;;;;;;;;;;5035316;28;19963;-27
2022/07/18 09:39:27;;;;;;;;;;;;;;;;;;5035278;28;19984;-27
2022/07/18 09:41:57;;;;;;;;;;;;;;;;;;5035051;28;19912;-27
2022/07/18 09:44:23;;;;;;;;;;;;;;;;;;5035163;28;19921;-27
2022/07/18 09:46:49;;;;;;;;;;;;;;;;;;5036170;28;20343;-27
2022/07/18 09:49:15;;;;;;;;;;;;;;;;;;5035160;28;19973;-27
2022/07/18 09:51:46;;;;;;;;;;;;;;;;;;5035375;28;20351;-27
2022/07/18 09:54:20;;;;;;;;;;;;;;;;;;5035580;28;19909;-27
2022/07/18 09:56:48;;;;;;;;;;;;;;;;;;5035292;28;19920;-27
2022/07/18 09:59:14;;;;;;;;;;;;;;;;;;5034917;28;19923;-27
2022/07/18 10:01:40;;;;;;;;;;;;;;;;;;5034913;28;19995;-27
2022/07/18 10:04:06;;;;;;;;;;;;;;;;;;5035549;28;20344;-27
2022/07/18 10:06:32;;;;;;;;;;;;;;;;;;5035280;28;19936;-27
2022/07/18 10:08:58;;;;;;;;;;;;;;;;;;5034788;28;19927;-26
2022/07/18 10:11:24;;;;;;;;;;;;;;;;;;5035388;28;19971;-26
2022/07/18 10:13:52;;;;;;;;;;;;;;;;;;5034702;28;19915;-27
2022/07/18 10:16:18;;;;;;;;;;;;;;;;;;5035363;28;20363;-26
2022/07/18 10:18:44;;;;;;;;;;;;;;;;;;5034630;28;20335;-26
2022/07/18 10:21:10;;;;;;;;;;;;;;;;;;5034593;28;19917;-27
2022/07/18 10:23:37;;;;;;;;;;;;;;;;;;5034498;28;19909;-27
2022/07/18 10:26:03;;;;;;;;;;;;;;;;;;5035342;28;19914;-27
2022/07/18 10:28:30;;;;;;;;;;;;;;;;;;5033965;28;19970;-27
2022/07/18 10:30:56;;;;;;;;;;;;;;;;;;5033680;28;19996;-27
2022/07/18 10:33:22;;;;;;;;;;;;;;;;;;5034561;28;20000;-27
2022/07/18 10:35:48;;;;;;;;;;;;;;;;;;5035262;28;19967;-27
2022/07/18 10:38:15;;;;;;;;;;;;;;;;;;5035216;28;19920;-27
2022/07/18 10:40:42;;;;;;;;;;;;;;;;;;5034718;28;19909;-27
2022/07/18 10:43:10;;;;;;;;;;;;;;;;;;5031761;28;19953;-27
2022/07/18 10:46:00;;;;;;;;;;;;;;;;;;5034653;28;19978;-27
2022/07/18 10:48:30;;;;;;;;;;;;;;;;;;5033454;28;20307;-27
2022/07/18 10:50:57;;;;;;;;;;;;;;;;;;5034552;28;19917;-27
2022/07/18 10:53:29;;;;;;;;;;;;;;;;;;5034488;28;19917;-27
2022/07/18 10:55:55;;;;;;;;;;;;;;;;;;5035050;28;20287;-27
2022/07/18 10:58:21;;;;;;;;;;;;;;;;;;5034517;28;19971;-27
2022/07/18 11:00:47;;;;;;;;;;;;;;;;;;5034736;28;19935;-27
2022/07/18 11:03:13;;;;;;;;;;;;;;;;;;5034423;28;20008;-28
2022/07/18 11:05:39;;;;;;;;;;;;;;;;;;5034467;28;19913;-28
2022/07/18 11:08:05;;;;;;;;;;;;;;;;;;5034997;28;20332;-26
2022/07/18 11:10:31;;;;;;;;;;;;;;;;;;5034768;28;20055;-26
2022/07/18 11:12:57;;;;;;;;;;;;;;;;;;5036397;28;19936;-26
2022/07/18 11:15:23;;;;;;;;;;;;;;;;;;5037068;28;19917;-26
2022/07/18 11:17:49;;;;;;;;;;;;;;;;;;5037958;28;20363;-26
2022/07/18 11:20:15;;;;;;;;;;;;;;;;;;5038111;28;20343;-26
2022/07/18 11:22:41;;;;;;;;;;;;;;;;;;5038247;28;19913;-26
2022/07/18 11:25:07;;;;;;;;;;;;;;;;;;5037729;28;19967;-27
2022/07/18 11:27:33;;;;;;;;;;;;;;;;;;5037604;28;19925;-27
2022/07/18 11:29:59;;;;;;;;;;;;;;;;;;5037688;28;20040;-27
2022/07/18 11:32:25;;;;;;;;;;;;;;;;;;5037607;28;19916;-27
2022/07/18 11:34:52;;;;;;;;;;;;;;;;;;5038152;28;19978;-27
2022/07/18 11:37:18;;;;;;;;;;;;;;;;;;5037870;28;20012;-27
2022/07/18 11:39:44;;;;;;;;;;;;;;;;;;5037735;28;19945;-26
2022/07/18 11:42:12;;;;;;;;;;;;;;;;;;5037285;28;19910;-26
2022/07/18 11:44:40;;;;;;;;;;;;;;;;;;5037292;28;20040;-26
2022/07/18 11:47:07;;;;;;;;;;;;;;;;;;5037270;28;19988;-27
2022/07/18 11:49:33;;;;;;;;;;;;;;;;;;5037554;28;20251;-27
2022/07/18 11:52:00;;;;;;;;;;;;;;;;;;5037623;28;19924;-27
2022/07/18 11:54:34;;;;;;;;;;;;;;;;;;5037716;28;19913;-26
2022/07/18 11:57:01;;;;;;;;;;;;;;;;;;5037237;28;19974;-27
2022/07/18 11:59:27;;;;;;;;;;;;;;;;;;5037097;28;19952;-27
2022/07/18 12:01:55;;;;;;;;;;;;;;;;;;5037452;28;20251;-27
2022/07/18 12:04:21;;;;;;;;;;;;;;;;;;5036906;28;19909;-27
2022/07/18 12:06:48;;;;;;;;;;;;;;;;;;5036941;28;19921;-26
2022/07/18 12:09:15;;;;;;;;;;;;;;;;;;5036821;28;19913;-27
2022/07/18 12:11:42;;;;;;;;;;;;;;;;;;5035839;28;19914;-26
2022/07/18 12:14:10;;;;;;;;;;;;;;;;;;5037421;28;19940;-27
2022/07/18 12:16:36;;;;;;;;;;;;;;;;;;5037610;28;19920;-27
2022/07/18 12:19:05;;;;;;;;;;;;;;;;;;5037100;28;20000;-27
2022/07/18 12:21:31;;;;;;;;;;;;;;;;;;5036945;28;19995;-27
2022/07/18 12:23:57;;;;;;;;;;;;;;;;;;5036218;28;20016;-27
2022/07/18 12:26:23;;;;;;;;;;;;;;;;;;5037197;28;20366;-27
2022/07/18 12:28:49;;;;;;;;;;;;;;;;;;5036601;28;19960;-26
2022/07/18 12:31:15;;;;;;;;;;;;;;;;;;5037130;28;19914;-27
2022/07/18 12:33:41;;;;;;;;;;;;;;;;;;5036454;28;20370;-27
2022/07/18 12:36:08;;;;;;;;;;;;;;;;;;5036795;28;20004;-27
2022/07/18 12:38:34;;;;;;;;;;;;;;;;;;5036653;28;19924;-26
2022/07/18 12:41:01;;;;;;;;;;;;;;;;;;5036860;28;20229;-27
2022/07/18 12:43:27;;;;;;;;;;;;;;;;;;5035950;28;19925;-27
2022/07/18 12:45:53;;;;;;;;;;;;;;;;;;5036517;28;19967;-27
2022/07/18 12:48:20;;;;;;;;;;;;;;;;;;5036307;28;20090;-26
2022/07/18 12:50:46;;;;;;;;;;;;;;;;;;5036379;28;20004;-26
2022/07/18 12:53:12;;;;;;;;;;;;;;;;;;5035961;28;19909;-27
2022/07/18 12:55:38;;;;;;;;;;;;;;;;;;5035049;28;19947;-27
2022/07/18 12:58:05;;;;;;;;;;;;;;;;;;5035938;28;19909;-26
2022/07/18 13:00:31;;;;;;;;;;;;;;;;;;5036684;28;19917;-26
2022/07/18 13:02:57;;;;;;;;;;;;;;;;;;5036009;28;19979;-26
2022/07/18 13:05:23;;;;;;;;;;;;;;;;;;5035880;28;19932;-27
2022/07/18 13:07:49;;;;;;;;;;;;;;;;;;5035760;28;19917;-27
2022/07/18 13:10:15;;;;;;;;;;;;;;;;;;5035671;28;20012;-26
2022/07/18 13:12:41;;;;;;;;;;;;;;;;;;5036268;28;19913;-27
2022/07/18 13:15:07;;;;;;;;;;;;;;;;;;5035642;28;19936;-27
2022/07/18 13:17:33;;;;;;;;;;;;;;;;;;5035661;28;19917;-27
2022/07/18 13:19:59;;;;;;;;;;;;;;;;;;5036107;28;20382;-27
2022/07/18 13:22:25;;;;;;;;;;;;;;;;;;5034499;28;19913;-27
2022/07/18 13:24:51;;;;;;;;;;;;;;;;;;5035489;28;19921;-27
2022/07/18 13:27:19;;;;;;;;;;;;;;;;;;5035362;28;19909;-27
2022/07/18 13:29:45;;;;;;;;;;;;;;;;;;5035643;28;19924;-27
2022/07/18 13:32:11;;;;;;;;;;;;;;;;;;5035754;28;20280;-27
2022/07/18 13:34:37;;;;;;;;;;;;;;;;;;5035265;28;19913;-27
2022/07/18 13:37:03;;;;;;;;;;;;;;;;;;5035528;28;19913;-27
2022/07/18 13:39:29;;;;;;;;;;;;;;;;;;5035698;28;19909;-27
2022/07/18 13:41:55;;;;;;;;;;;;;;;;;;5035351;28;20041;-26
2022/07/18 13:44:21;;;;;;;;;;;;;;;;;;5035075;28;20003;-27
2022/07/18 13:46:47;;;;;;;;;;;;;;;;;;5035120;28;20359;-27
2022/07/18 13:49:13;;;;;;;;;;;;;;;;;;5036473;28;19913;-27
2022/07/18 13:51:39;;;;;;;;;;;;;;;;;;5035092;28;19913;-27
2022/07/18 13:54:05;;;;;;;;;;;;;;;;;;5035313;28;19940;-27
2022/07/18 13:56:31;;;;;;;;;;;;;;;;;;5034991;28;19987;-27
2022/07/18 13:58:57;;;;;;;;;;;;;;;;;;5035290;28;20011;-27
2022/07/18 14:01:23;;;;;;;;;;;;;;;;;;5035094;28;19967;-27
2022/07/18 14:03:49;;;;;;;;;;;;;;;;;;5034972;28;19909;-27
2022/07/18 14:06:15;;;;;;;;;;;;;;;;;;5034963;28;19913;-27
2022/07/18 14:08:41;;;;;;;;;;;;;;;;;;5034848;28;19952;-27
2022/07/18 14:11:07;;;;;;;;;;;;;;;;;;5034886;28;19913;-27
2022/07/18 14:13:33;;;;;;;;;;;;;;;;;;5034802;28;19909;-27
2022/07/18 14:15:59;;;;;;;;;;;;;;;;;;5034981;28;19921;-27
2022/07/18 14:18:25;;;;;;;;;;;;;;;;;;5034551;28;20275;-27
2022/07/18 14:20:51;;;;;;;;;;;;;;;;;;5035229;28;19913;-27
2022/07/18 14:23:17;;;;;;;;;;;;;;;;;;5034704;28;19909;-27
2022/07/18 14:25:43;;;;;;;;;;;;;;;;;;5035150;28;19914;-27
2022/07/18 14:28:09;;;;;;;;;;;;;;;;;;5035391;28;19917;-26
2022/07/18 14:30:35;;;;;;;;;;;;;;;;;;5035758;28;19969;-26
2022/07/18 14:33:01;;;;;;;;;;;;;;;;;;5034946;28;20004;-27
2022/07/18 14:35:27;;;;;;;;;;;;;;;;;;5035378;28;19967;-27
2022/07/18 14:37:53;;;;;;;;;;;;;;;;;;5035272;28;20292;-27
2022/07/18 14:40:19;;;;;;;;;;;;;;;;;;5034900;28;19913;-27
2022/07/18 14:42:45;;;;;;;;;;;;;;;;;;5035050;28;19936;-27
2022/07/18 14:45:11;;;;;;;;;;;;;;;;;;5034622;28;19974;-27
2022/07/18 14:47:37;;;;;;;;;;;;;;;;;;5037838;28;20015;-27
2022/07/18 14:50:03;;;;;;;;;;;;;;;;;;5038719;28;19913;-27
2022/07/18 14:52:29;;;;;;;;;;;;;;;;;;5038319;28;19913;-27
2022/07/18 14:54:55;;;;;;;;;;;;;;;;;;5038434;28;20356;-27
2022/07/18 14:57:21;;;;;;;;;;;;;;;;;;5038918;28;20306;-27
2022/07/18 14:59:47;;;;;;;;;;;;;;;;;;5038644;28;19944;-27
2022/07/18 15:02:14;;;;;;;;;;;;;;;;;;5038393;28;19964;-27
2022/07/18 15:04:40;;;;;;;;;;;;;;;;;;5038931;28;20008;-27
2022/07/18 15:07:06;;;;;;;;;;;;;;;;;;5038097;28;19941;-27
2022/07/18 15:09:32;;;;;;;;;;;;;;;;;;5038138;28;20050;-27
2022/07/18 15:11:58;;;;;;;;;;;;;;;;;;5037838;28;19923;-27
2022/07/18 15:14:24;;;;;;;;;;;;;;;;;;5037990;28;19909;-27
2022/07/18 15:16:50;;;;;;;;;;;;;;;;;;5038263;28;19940;-27
2022/07/18 15:19:16;;;;;;;;;;;;;;;;;;5037946;28;19915;-27
2022/07/18 15:21:42;;;;;;;;;;;;;;;;;;5038417;28;19917;-27
2022/07/18 15:24:08;;;;;;;;;;;;;;;;;;5037791;28;20340;-26
2022/07/18 15:26:34;;;;;;;;;;;;;;;;;;5038411;28;19963;-27
2022/07/18 15:29:00;;;;;;;;;;;;;;;;;;5038458;28;19929;-27
2022/07/18 15:31:26;;;;;;;;;;;;;;;;;;5037785;28;19913;-27
2022/07/18 15:33:52;;;;;;;;;;;;;;;;;;5037922;28;19924;-27
2022/07/18 15:36:18;;;;;;;;;;;;;;;;;;5037982;28;20311;-27
2022/07/18 15:38:44;;;;;;;;;;;;;;;;;;5037557;28;19913;-27
2022/07/18 15:41:10;;;;;;;;;;;;;;;;;;5037504;28;19913;-27
2022/07/18 15:43:36;;;;;;;;;;;;;;;;;;5037242;28;19925;-27
2022/07/18 15:46:02;;;;;;;;;;;;;;;;;;5037373;28;19909;-27
2022/07/18 15:48:28;;;;;;;;;;;;;;;;;;5038401;28;19928;-27
2022/07/18 15:50:54;;;;;;;;;;;;;;;;;;5037337;28;19909;-27
2022/07/18 15:53:20;;;;;;;;;;;;;;;;;;5037307;28;20367;-27
2022/07/18 15:55:46;;;;;;;;;;;;;;;;;;5037515;28;20344;-27
2022/07/18 15:58:12;;;;;;;;;;;;;;;;;;5036443;28;19915;-27
2022/07/18 16:00:38;;;;;;;;;;;;;;;;;;5037234;28;19909;-27
2022/07/18 16:03:04;;;;;;;;;;;;;;;;;;5037070;28;19913;-27
2022/07/18 16:05:30;;;;;;;;;;;;;;;;;;5037086;28;19913;-27
2022/07/18 16:07:56;;;;;;;;;;;;;;;;;;5037499;28;19924;-27
2022/07/18 16:10:22;;;;;;;;;;;;;;;;;;5037000;28;19909;-27
2022/07/18 16:12:48;;;;;;;;;;;;;;;;;;5037470;28;19914;-27
2022/07/18 16:15:14;;;;;;;;;;;;;;;;;;5036926;28;20405;-27
2022/07/18 16:17:40;;;;;;;;;;;;;;;;;;5037165;28;19921;-27
2022/07/18 16:20:06;;;;;;;;;;;;;;;;;;5037112;28;20335;-27
2022/07/18 16:22:32;;;;;;;;;;;;;;;;;;5036636;28;19987;-27
2022/07/18 16:24:58;;;;;;;;;;;;;;;;;;5036770;28;20008;-27
2022/07/18 16:27:24;;;;;;;;;;;;;;;;;;5037139;28;19913;-27
2022/07/18 16:29:50;;;;;;;;;;;;;;;;;;5036653;28;20362;-27
2022/07/18 16:32:16;;;;;;;;;;;;;;;;;;5036525;28;19917;-26
2022/07/18 16:34:42;;;;;;;;;;;;;;;;;;5036556;28;19909;-27
2022/07/18 16:37:08;;;;;;;;;;;;;;;;;;5037011;28;19917;-26
2022/07/18 16:39:34;;;;;;;;;;;;;;;;;;5037003;28;20291;-27
2022/07/18 16:42:00;;;;;;;;;;;;;;;;;;5036594;28;19917;-27
2022/07/18 16:44:26;;;;;;;;;;;;;;;;;;5036174;28;20276;-27
2022/07/18 16:46:52;;;;;;;;;;;;;;;;;;5036228;28;20000;-27
2022/07/18 16:49:18;;;;;;;;;;;;;;;;;;5036415;28;19971;-27
2022/07/18 16:51:44;;;;;;;;;;;;;;;;;;5036170;28;20267;-27
2022/07/18 16:54:10;;;;;;;;;;;;;;;;;;5036180;28;19913;-27
2022/07/18 16:56:37;;;;;;;;;;;;;;;;;;5036419;28;19920;-27
2022/07/18 16:59:03;;;;;;;;;;;;;;;;;;5036925;28;19949;-27
2022/07/18 17:01:29;;;;;;;;;;;;;;;;;;5035913;28;19967;-27
2022/07/18 17:03:55;;;;;;;;;;;;;;;;;;5036118;28;19910;-26
2022/07/18 17:06:21;;;;;;;;;;;;;;;;;;5036381;28;19913;-26
2022/07/18 17:08:47;;;;;;;;;;;;;;;;;;5035658;28;19913;-26
2022/07/18 17:11:15;;;;;;;;;;;;;;;;;;5034977;28;20216;-26
2022/07/18 17:13:41;;;;;;;;;;;;;;;;;;5035631;28;19967;-26
2022/07/18 17:16:07;;;;;;;;;;;;;;;;;;5036195;28;20332;-27
2022/07/18 17:18:33;;;;;;;;;;;;;;;;;;5035847;28;19953;-26
2022/07/18 17:20:59;;;;;;;;;;;;;;;;;;5036120;28;19917;-26
2022/07/18 17:23:25;;;;;;;;;;;;;;;;;;5035776;28;20007;-26
2022/07/18 17:25:51;;;;;;;;;;;;;;;;;;5036102;28;20332;-26
2022/07/18 17:28:17;;;;;;;;;;;;;;;;;;5035436;28;19916;-26
2022/07/18 17:30:43;;;;;;;;;;;;;;;;;;5035457;28;19913;-26
2022/07/18 17:33:09;;;;;;;;;;;;;;;;;;5035531;28;20340;-26
2022/07/18 17:35:35;;;;;;;;;;;;;;;;;;5035325;28;20358;-26